createdAt,value
2018-03-11T00:01:27.693Z,65.70
2018-03-11T00:02:27.648Z,62.70
2018-03-11T00:04:20.646Z,65.10
2018-03-11T00:05:20.615Z,68.70
2018-03-11T00:07:14.002Z,65.40
2018-03-11T00:08:14.560Z,62.60
2018-03-11T00:10:07.400Z,68.90
2018-03-11T00:11:07.339Z,75.70
2018-03-11T00:13:00.752Z,84.40
2018-03-11T00:14:00.721Z,73.30
2018-03-11T00:15:53.592Z,71.00
2018-03-11T00:16:53.586Z,72.90
2018-03-11T00:18:46.948Z,59.50
2018-03-11T00:19:46.913Z,62.20
2018-03-11T00:21:40.307Z,58.10
2018-03-11T00:22:40.274Z,50.50
2018-03-11T00:24:33.169Z,43.50
2018-03-11T00:25:33.156Z,41.50
2018-03-11T00:27:26.641Z,35.80
2018-03-11T00:28:26.029Z,34.20
2018-03-11T00:30:19.522Z,33.10
2018-03-11T00:31:19.385Z,35.30
2018-03-11T00:33:12.283Z,32.90
2018-03-11T00:34:12.306Z,34.80
2018-03-11T00:36:05.628Z,33.40
2018-03-11T00:37:05.600Z,31.10
2018-03-11T00:38:58.498Z,33.10
2018-03-11T00:39:58.486Z,33.80
2018-03-11T00:41:53.031Z,37.20
2018-03-11T00:42:52.834Z,39.90
2018-03-11T00:44:46.313Z,48.40
2018-03-11T00:45:46.197Z,49.60
2018-03-11T00:47:39.607Z,47.00
2018-03-11T00:48:39.551Z,51.60
2018-03-11T00:50:32.510Z,59.50
2018-03-11T00:51:32.411Z,59.00
2018-03-11T00:53:25.966Z,57.60
2018-03-11T00:54:25.276Z,62.10
2018-03-11T00:56:18.756Z,68.20
2018-03-11T00:57:18.145Z,74.20
2018-03-11T00:59:14.160Z,77.90
2018-03-11T01:00:11.515Z,76.40
2018-03-11T01:02:04.517Z,65.70
2018-03-11T01:03:04.364Z,64.30
2018-03-11T01:04:57.430Z,77.30
2018-03-11T01:05:57.232Z,84.20
2018-03-11T01:07:50.673Z,80.30
2018-03-11T01:08:50.584Z,80.80
2018-03-11T01:10:44.555Z,77.10
2018-03-11T01:11:43.988Z,80.80
2018-03-11T01:13:36.893Z,84.40
2018-03-11T01:14:36.855Z,81.50
2018-03-11T01:16:31.307Z,101.20
2018-03-11T01:17:29.723Z,93.80
2018-03-11T01:19:23.179Z,104.20
2018-03-11T01:20:23.089Z,102.60
2018-03-11T01:22:16.496Z,110.80
2018-03-11T01:23:16.442Z,113.10
2018-03-11T01:25:10.545Z,115.90
2018-03-11T01:26:09.869Z,112.10
2018-03-11T01:28:04.266Z,113.10
2018-03-11T01:29:04.180Z,108.80
2018-03-11T01:30:57.069Z,105.20
2018-03-11T01:31:57.073Z,105.70
2018-03-11T01:33:49.987Z,121.10
2018-03-11T01:34:49.911Z,114.50
2018-03-11T01:36:44.850Z,127.90
2018-03-11T01:37:43.853Z,124.60
2018-03-11T01:39:37.652Z,109.80
2018-03-11T01:40:37.620Z,104.50
2018-03-11T01:42:30.577Z,125.70
2018-03-11T01:43:30.533Z,119.10
2018-03-11T01:45:24.493Z,120.50
2018-03-11T01:46:24.458Z,114.70
2018-03-11T01:48:18.057Z,126.30
2018-03-11T01:49:17.838Z,120.90
2018-03-11T01:51:10.707Z,122.70
2018-03-11T01:52:10.700Z,113.80
2018-03-11T01:54:04.152Z,119.10
2018-03-11T01:55:03.544Z,122.90
2018-03-11T01:56:56.541Z,137.80
2018-03-11T01:57:56.412Z,152.40
2018-03-11T01:59:49.805Z,146.10
2018-03-11T02:00:49.788Z,152.40
2018-03-11T02:02:42.688Z,136.70
2018-03-11T02:03:42.643Z,145.80
2018-03-11T02:05:36.025Z,156.30
2018-03-11T02:06:35.998Z,158.90
2018-03-11T02:08:29.379Z,164.80
2018-03-11T02:09:29.358Z,165.60
2018-03-11T02:11:22.285Z,159.80
2018-03-11T02:12:22.226Z,164.90
2018-03-11T02:14:15.110Z,167.90
2018-03-11T02:15:15.086Z,157.20
2018-03-11T02:17:08.014Z,167.70
2018-03-11T02:18:07.966Z,189.80
2018-03-11T02:20:00.821Z,180.80
2018-03-11T02:21:00.803Z,174.30
2018-03-11T02:22:54.249Z,155.20
2018-03-11T02:23:54.156Z,162.10
2018-03-11T02:25:47.536Z,170.70
2018-03-11T02:26:47.514Z,170.00
2018-03-11T02:28:40.981Z,183.00
2018-03-11T02:29:40.876Z,191.70
2018-03-11T02:31:34.275Z,160.30
2018-03-11T02:32:34.230Z,159.40
2018-03-11T02:34:27.122Z,184.90
2018-03-11T02:35:27.101Z,180.70
2018-03-11T02:37:19.995Z,174.90
2018-03-11T02:38:19.989Z,170.20
2018-03-11T02:40:12.874Z,174.80
2018-03-11T02:41:12.826Z,166.20
2018-03-11T02:43:05.742Z,198.60
2018-03-11T02:44:05.702Z,192.90
2018-03-11T02:45:58.599Z,185.60
2018-03-11T02:46:58.607Z,195.00
2018-03-11T02:48:51.932Z,160.30
2018-03-11T02:49:51.904Z,161.90
2018-03-11T02:51:44.796Z,198.90
2018-03-11T02:52:44.765Z,179.20
2018-03-11T02:54:37.680Z,173.20
2018-03-11T02:55:37.639Z,197.70
2018-03-11T02:57:30.531Z,146.40
2018-03-11T02:58:30.517Z,167.90
2018-03-11T03:00:24.100Z,210.00
2018-03-11T03:01:23.858Z,175.70
2018-03-11T03:03:17.267Z,172.70
2018-03-11T03:04:17.218Z,184.60
2018-03-11T03:06:10.236Z,206.20
2018-03-11T03:07:10.069Z,204.60
2018-03-11T03:09:03.039Z,187.00
2018-03-11T03:10:02.940Z,176.80
2018-03-11T03:11:55.842Z,184.90
2018-03-11T03:12:55.796Z,197.90
2018-03-11T03:14:49.241Z,177.80
2018-03-11T03:15:49.169Z,172.90
2018-03-11T03:17:42.071Z,190.80
2018-03-11T03:18:42.048Z,192.70
2018-03-11T03:20:34.944Z,209.60
2018-03-11T03:21:34.898Z,217.70
2018-03-11T03:23:27.849Z,197.30
2018-03-11T03:24:27.799Z,203.20
2018-03-11T03:26:21.244Z,195.30
2018-03-11T03:27:21.122Z,207.10
2018-03-11T03:29:14.089Z,185.80
2018-03-11T03:30:13.981Z,187.60
2018-03-11T03:32:07.426Z,183.90
2018-03-11T03:33:07.339Z,191.10
2018-03-11T03:35:00.240Z,189.20
2018-03-11T03:36:00.190Z,200.90
2018-03-11T03:37:53.155Z,200.30
2018-03-11T03:38:53.067Z,196.40
2018-03-11T03:40:46.544Z,197.40
2018-03-11T03:41:46.404Z,204.80
2018-03-11T03:43:39.485Z,186.70
2018-03-11T03:44:39.285Z,180.40
2018-03-11T03:46:32.824Z,181.60
2018-03-11T03:47:32.638Z,185.00
2018-03-11T03:49:25.519Z,169.20
2018-03-11T03:50:25.517Z,166.20
2018-03-11T03:52:18.896Z,170.40
2018-03-11T03:53:18.855Z,173.90
2018-03-11T03:55:12.800Z,163.40
2018-03-11T03:56:12.203Z,170.10
2018-03-11T03:58:05.188Z,169.30
2018-03-11T03:59:05.076Z,155.20
2018-03-11T04:00:58.446Z,168.70
2018-03-11T04:01:58.423Z,174.20
2018-03-11T04:03:51.883Z,154.70
2018-03-11T04:04:51.785Z,161.10
2018-03-11T04:06:44.728Z,159.20
2018-03-11T04:07:44.669Z,169.00
2018-03-11T04:09:37.656Z,156.50
2018-03-11T04:10:37.547Z,153.90
2018-03-11T04:12:30.917Z,154.80
2018-03-11T04:13:31.439Z,164.30
2018-03-11T04:15:23.873Z,156.10
2018-03-11T04:16:23.734Z,148.60
2018-03-11T04:18:17.105Z,157.10
2018-03-11T04:19:17.078Z,152.80
2018-03-11T04:21:09.984Z,140.70
2018-03-11T04:22:09.963Z,138.80
2018-03-11T04:24:02.929Z,134.80
2018-03-11T04:25:02.814Z,123.50
2018-03-11T04:26:57.423Z,119.80
2018-03-11T04:27:56.174Z,117.00
2018-03-11T04:29:49.057Z,114.20
2018-03-11T04:30:49.042Z,114.50
2018-03-11T04:32:41.996Z,107.50
2018-03-11T04:33:41.903Z,102.70
2018-03-11T04:35:35.289Z,102.80
2018-03-11T04:36:35.250Z,95.60
2018-03-11T04:38:28.155Z,96.20
2018-03-11T04:39:28.112Z,95.40
2018-03-11T04:41:21.502Z,86.40
2018-03-11T04:42:21.468Z,85.30
2018-03-11T04:44:14.357Z,83.20
2018-03-11T04:45:14.326Z,77.40
2018-03-11T04:47:07.267Z,71.90
2018-03-11T04:48:07.192Z,67.20
2018-03-11T04:50:00.088Z,65.40
2018-03-11T04:51:00.056Z,63.10
2018-03-11T04:52:53.441Z,53.90
2018-03-11T04:53:53.416Z,51.00
2018-03-11T04:55:46.307Z,50.40
2018-03-11T04:56:46.287Z,52.40
2018-03-11T04:58:39.183Z,50.90
2018-03-11T04:59:39.163Z,51.30
2018-03-11T05:01:32.563Z,47.30
2018-03-11T05:02:32.504Z,48.60
2018-03-11T05:04:25.394Z,47.20
2018-03-11T05:05:25.369Z,45.00
2018-03-11T05:07:18.311Z,41.00
2018-03-11T05:08:18.231Z,40.40
2018-03-11T05:10:11.611Z,44.20
2018-03-11T05:11:11.613Z,47.20
2018-03-11T05:13:05.043Z,43.30
2018-03-11T05:14:04.945Z,44.50
2018-03-11T05:15:58.332Z,48.50
2018-03-11T05:16:58.302Z,51.60
2018-03-11T05:18:51.190Z,48.70
2018-03-11T05:19:51.166Z,51.60
2018-03-11T05:21:44.120Z,47.00
2018-03-11T05:22:44.025Z,44.00
2018-03-11T05:24:37.419Z,45.30
2018-03-11T05:25:37.396Z,45.60
2018-03-11T05:27:30.278Z,42.70
2018-03-11T05:28:30.287Z,46.10
2018-03-11T05:30:23.147Z,45.70
2018-03-11T05:31:23.116Z,45.40
2018-03-11T05:33:16.494Z,44.10
2018-03-11T05:34:16.468Z,48.60
2018-03-11T05:36:09.361Z,46.90
2018-03-11T05:37:09.335Z,47.70
2018-03-11T05:39:02.749Z,48.30
2018-03-11T05:40:02.709Z,47.40
2018-03-11T05:41:55.586Z,48.40
2018-03-11T05:42:55.557Z,43.90
2018-03-11T05:44:48.450Z,41.60
2018-03-11T05:45:48.423Z,41.00
2018-03-11T05:47:41.309Z,39.80
2018-03-11T05:48:41.292Z,36.50
2018-03-11T05:50:34.691Z,42.90
2018-03-11T05:51:34.646Z,46.10
2018-03-11T05:53:27.599Z,42.40
2018-03-11T05:54:27.520Z,44.50
2018-03-11T05:56:20.457Z,45.80
2018-03-11T05:57:20.425Z,43.70
2018-03-11T05:59:13.306Z,46.60
2018-03-11T06:00:13.282Z,42.70
2018-03-11T06:02:06.179Z,40.90
2018-03-11T06:03:06.160Z,37.90
2018-03-11T06:04:59.039Z,39.70
2018-03-11T06:05:59.010Z,43.10
2018-03-11T06:07:51.931Z,46.00
2018-03-11T06:08:51.874Z,42.20
2018-03-11T06:10:44.779Z,39.10
2018-03-11T06:11:44.736Z,39.30
2018-03-11T06:13:37.630Z,38.80
2018-03-11T06:14:37.610Z,39.30
2018-03-11T06:16:30.500Z,34.50
2018-03-11T06:17:30.473Z,35.10
2018-03-11T06:19:23.365Z,36.30
2018-03-11T06:20:23.340Z,36.10
2018-03-11T06:22:16.738Z,35.70
2018-03-11T06:23:16.695Z,33.40
2018-03-11T06:25:09.592Z,33.40
2018-03-11T06:26:09.569Z,31.20
2018-03-11T06:28:02.460Z,34.30
2018-03-11T06:29:02.437Z,33.60
2018-03-11T06:30:55.328Z,32.20
2018-03-11T06:31:55.296Z,32.80
2018-03-11T06:33:48.680Z,31.80
2018-03-11T06:34:48.651Z,32.70
2018-03-11T06:36:42.049Z,27.90
2018-03-11T06:37:42.023Z,26.70
2018-03-11T06:39:34.915Z,26.50
2018-03-11T06:40:34.892Z,26.20
2018-03-11T06:42:28.270Z,24.80
2018-03-11T06:43:28.261Z,29.00
2018-03-11T06:45:21.710Z,26.30
2018-03-11T06:46:21.113Z,25.90
2018-03-11T06:48:14.085Z,25.70
2018-03-11T06:49:13.987Z,27.90
2018-03-11T06:51:06.883Z,24.50
2018-03-11T06:52:06.848Z,24.20
2018-03-11T06:53:59.731Z,25.30
2018-03-11T06:54:59.706Z,24.60
2018-03-11T06:56:52.616Z,23.20
2018-03-11T06:57:52.588Z,22.60
2018-03-11T06:59:45.470Z,22.40
2018-03-11T07:00:45.446Z,22.10
2018-03-11T07:02:39.483Z,23.60
2018-03-11T07:03:39.318Z,21.10
2018-03-11T07:05:32.431Z,22.10
2018-03-11T07:06:32.185Z,21.70
2018-03-11T07:08:25.799Z,21.10
2018-03-11T07:09:25.604Z,19.90
2018-03-11T07:11:18.951Z,23.60
2018-03-11T07:12:18.898Z,23.60
2018-03-11T07:14:14.003Z,19.80
2018-03-11T07:15:12.836Z,19.20
2018-03-11T07:17:05.411Z,22.10
2018-03-11T07:18:05.150Z,20.60
2018-03-11T07:19:58.537Z,24.60
2018-03-11T07:20:58.509Z,21.60
2018-03-11T07:22:52.083Z,21.20
2018-03-11T07:23:51.861Z,22.10
2018-03-11T07:25:45.318Z,22.80
2018-03-11T07:26:45.214Z,20.90
2018-03-11T07:28:38.864Z,23.30
2018-03-11T07:29:38.607Z,23.10
2018-03-11T07:31:32.299Z,22.00
2018-03-11T07:32:31.966Z,22.30
2018-03-11T07:34:25.689Z,24.60
2018-03-11T07:35:25.322Z,25.60
2018-03-11T07:37:19.739Z,26.40
2018-03-11T07:38:18.680Z,25.60
2018-03-11T07:40:13.137Z,24.70
2018-03-11T07:41:12.610Z,26.10
2018-03-11T07:43:04.992Z,23.90
2018-03-11T07:44:04.991Z,24.00
2018-03-11T07:45:58.597Z,25.00
2018-03-11T07:46:58.317Z,29.40
2018-03-11T07:48:51.915Z,26.10
2018-03-11T07:49:51.711Z,27.30
2018-03-11T07:51:44.613Z,26.40
2018-03-11T07:52:44.577Z,26.90
2018-03-11T07:54:38.290Z,27.60
2018-03-11T07:55:37.929Z,25.60
2018-03-11T07:57:30.931Z,25.20
2018-03-11T07:58:30.897Z,25.30
2018-03-11T08:00:23.851Z,24.80
2018-03-11T08:01:23.745Z,26.30
2018-03-11T08:03:17.168Z,26.30
2018-03-11T08:04:17.122Z,26.20
2018-03-11T08:06:10.707Z,24.10
2018-03-11T08:07:10.557Z,24.70
2018-03-11T08:09:04.479Z,24.40
2018-03-11T08:10:03.885Z,25.00
2018-03-11T08:11:57.513Z,22.80
2018-03-11T08:12:57.233Z,23.40
2018-03-11T08:14:50.641Z,24.50
2018-03-11T08:15:51.222Z,25.30
2018-03-11T08:17:43.562Z,23.00
2018-03-11T08:18:43.558Z,24.60
2018-03-11T08:20:37.148Z,22.80
2018-03-11T08:21:36.863Z,23.40
2018-03-11T08:23:31.250Z,21.20
2018-03-11T08:24:31.232Z,23.30
2018-03-11T08:26:25.024Z,24.90
2018-03-11T08:27:24.119Z,25.00
2018-03-11T08:29:17.779Z,25.10
2018-03-11T08:30:17.515Z,24.80
2018-03-11T08:32:11.004Z,26.00
2018-03-11T08:33:13.399Z,28.70
2018-03-11T08:35:05.499Z,27.60
2018-03-11T08:36:05.129Z,27.10
2018-03-11T08:37:58.660Z,27.10
2018-03-11T08:38:58.254Z,27.80
2018-03-11T08:40:52.068Z,27.70
2018-03-11T08:41:51.652Z,24.20
2018-03-11T08:43:46.124Z,23.60
2018-03-11T08:44:45.899Z,24.80
2018-03-11T08:46:39.868Z,25.70
2018-03-11T08:47:39.804Z,26.80
2018-03-11T08:49:32.757Z,24.30
2018-03-11T08:50:32.692Z,22.30
2018-03-11T08:52:26.060Z,23.00
2018-03-11T08:53:26.045Z,20.00
2018-03-11T08:55:19.106Z,21.40
2018-03-11T08:56:18.931Z,21.10
2018-03-11T08:58:12.397Z,19.00
2018-03-11T08:59:11.822Z,19.10
2018-03-11T09:01:05.195Z,20.50
2018-03-11T09:02:05.150Z,20.10
2018-03-11T09:03:58.566Z,18.70
2018-03-11T09:04:58.523Z,20.90
2018-03-11T09:06:51.997Z,21.70
2018-03-11T09:07:51.899Z,17.20
2018-03-11T09:09:45.079Z,16.50
2018-03-11T09:10:44.857Z,17.70
2018-03-11T09:12:38.141Z,17.90
2018-03-11T09:13:37.850Z,17.00
2018-03-11T09:15:31.157Z,15.70
2018-03-11T09:16:30.808Z,15.20
2018-03-11T09:18:23.945Z,16.80
2018-03-11T09:19:23.795Z,16.60
2018-03-11T09:21:17.113Z,16.30
2018-03-11T09:22:17.089Z,18.30
2018-03-11T09:24:12.795Z,14.50
2018-03-11T09:25:10.569Z,15.40
2018-03-11T09:27:04.150Z,14.60
2018-03-11T09:28:04.092Z,14.40
2018-03-11T09:29:57.531Z,13.20
2018-03-11T09:30:57.085Z,13.50
2018-03-11T09:32:51.086Z,12.30
2018-03-11T09:33:50.885Z,13.10
2018-03-11T09:35:44.413Z,13.30
2018-03-11T09:37:58.730Z,11.20
2018-03-11T09:38:58.706Z,11.30
2018-03-11T09:40:53.129Z,10.10
2018-03-11T09:41:53.025Z,13.00
2018-03-11T09:43:46.565Z,10.40
2018-03-11T09:44:46.100Z,10.40
2018-03-11T09:46:39.769Z,10.50
2018-03-11T09:47:39.505Z,13.50
2018-03-11T09:49:32.928Z,11.90
2018-03-11T09:50:32.412Z,10.30
2018-03-11T09:52:25.841Z,9.80
2018-03-11T09:53:25.612Z,10.60
2018-03-11T09:55:19.956Z,11.10
2018-03-11T09:56:19.487Z,9.20
2018-03-11T09:58:13.078Z,9.00
2018-03-11T09:59:13.790Z,11.20
2018-03-11T10:01:09.936Z,7.30
2018-03-11T10:02:08.908Z,7.70
2018-03-11T10:04:02.259Z,9.40
2018-03-11T10:05:02.221Z,8.40
2018-03-11T10:06:55.675Z,8.70
2018-03-11T10:07:56.751Z,8.20
2018-03-11T10:09:50.133Z,8.40
2018-03-11T10:10:48.868Z,7.70
2018-03-11T10:12:42.540Z,6.30
2018-03-11T10:13:42.563Z,4.90
2018-03-11T10:15:38.396Z,6.30
2018-03-11T10:16:37.049Z,5.90
2018-03-11T10:18:29.849Z,4.90
2018-03-11T10:19:30.068Z,5.30
2018-03-11T10:21:23.318Z,3.60
2018-03-11T10:22:22.963Z,3.70
2018-03-11T10:24:16.817Z,3.20
2018-03-11T10:25:16.320Z,6.40
2018-03-11T10:27:10.087Z,4.00
2018-03-11T10:28:09.684Z,4.70
2018-03-11T10:30:04.680Z,3.90
2018-03-11T10:31:04.591Z,4.40
2018-03-11T10:32:57.876Z,3.50
2018-03-11T10:33:57.579Z,4.10
2018-03-11T10:35:52.890Z,4.00
2018-03-11T10:36:51.302Z,3.20
2018-03-11T10:38:44.828Z,6.40
2018-03-11T10:39:44.773Z,6.80
2018-03-11T10:41:41.419Z,6.70
2018-03-11T10:42:40.361Z,6.30
2018-03-11T10:44:32.747Z,3.70
2018-03-11T10:45:30.834Z,3.90
2018-03-11T10:47:25.632Z,14.50
2018-03-11T10:48:24.213Z,3.60
2018-03-11T10:50:24.234Z,4.10
2018-03-11T10:52:31.733Z,4.70
2018-03-11T10:54:45.734Z,4.30
2018-03-11T10:55:44.940Z,4.10
2018-03-11T10:58:30.960Z,3.90
2018-03-11T10:59:30.229Z,3.90
2018-03-11T11:01:23.809Z,3.70
2018-03-11T11:02:23.505Z,3.80
2018-03-11T11:04:17.248Z,4.70
2018-03-11T11:05:16.962Z,7.30
2018-03-11T11:07:13.603Z,5.60
2018-03-11T11:08:10.258Z,5.20
2018-03-11T11:10:07.346Z,5.90
2018-03-11T11:11:05.995Z,4.60
2018-03-11T11:13:03.041Z,4.00
2018-03-11T11:13:57.743Z,5.20
2018-03-11T11:15:52.489Z,3.60
2018-03-11T11:16:50.725Z,4.70
2018-03-11T11:18:47.404Z,3.70
2018-03-11T11:19:45.071Z,3.90
2018-03-11T11:21:37.586Z,3.30
2018-03-11T11:22:38.186Z,2.80
2018-03-11T11:24:31.064Z,2.40
2018-03-11T11:25:31.290Z,3.60
2018-03-11T11:27:24.972Z,3.50
2018-03-11T11:28:23.684Z,5.60
2018-03-11T11:30:17.340Z,2.80
2018-03-11T11:31:17.130Z,3.90
2018-03-11T11:33:15.039Z,3.10
2018-03-11T11:35:25.383Z,4.30
2018-03-11T11:36:26.542Z,3.30
2018-03-11T11:38:17.757Z,6.40
2018-03-11T11:39:17.762Z,13.30
2018-03-11T11:41:11.123Z,52.40
2018-03-11T11:42:10.860Z,22.70
2018-03-11T11:44:05.648Z,9.20
2018-03-11T11:45:05.081Z,6.40
2018-03-11T11:46:58.409Z,9.60
2018-03-11T11:47:57.978Z,7.90
2018-03-11T11:49:52.116Z,7.80
2018-03-11T11:50:51.774Z,5.60
2018-03-11T11:52:44.383Z,4.40
2018-03-11T11:53:45.379Z,4.90
2018-03-11T11:55:37.346Z,5.10
2018-03-11T11:56:37.121Z,5.20
2018-03-11T11:58:30.837Z,4.90
2018-03-11T11:59:30.537Z,5.50
2018-03-11T12:01:23.774Z,3.60
2018-03-11T12:04:22.496Z,3.00
2018-03-11T12:06:33.633Z,3.80
2018-03-11T12:07:31.418Z,4.10
2018-03-11T12:09:26.922Z,5.60
2018-03-11T12:10:24.727Z,4.40
2018-03-11T12:12:18.002Z,2.40
2018-03-11T12:13:18.997Z,2.30
2018-03-11T12:15:14.567Z,3.00
2018-03-11T12:17:24.889Z,3.30
2018-03-11T12:19:41.233Z,2.40
2018-03-11T12:20:37.376Z,2.40
2018-03-11T12:22:30.100Z,4.90
2018-03-11T12:23:29.727Z,4.40
2018-03-11T12:25:23.141Z,4.20
2018-03-11T12:26:23.137Z,4.30
2018-03-11T12:28:16.859Z,3.90
2018-03-11T12:29:16.507Z,2.50
2018-03-11T12:31:10.460Z,4.40
2018-03-11T12:32:09.859Z,7.60
2018-03-11T12:34:03.410Z,3.00
2018-03-11T12:35:03.272Z,4.80
2018-03-11T12:36:57.048Z,4.00
2018-03-11T12:37:59.202Z,3.50
2018-03-11T12:39:49.913Z,5.20
2018-03-11T12:40:49.714Z,5.40
2018-03-11T12:42:44.028Z,3.20
2018-03-11T12:43:43.328Z,3.60
2018-03-11T12:45:37.909Z,4.80
2018-03-11T12:46:36.382Z,5.30
2018-03-11T12:48:30.659Z,3.50
2018-03-11T12:49:29.271Z,3.00
2018-03-11T12:51:22.918Z,4.00
2018-03-11T12:52:22.573Z,3.50
2018-03-11T12:54:16.171Z,2.70
2018-03-11T12:55:16.009Z,9.90
2018-03-11T12:57:08.832Z,8.30
2018-03-11T12:58:09.386Z,7.30
2018-03-11T13:00:03.832Z,3.50
2018-03-11T13:02:18.671Z,3.60
2018-03-11T13:03:17.191Z,4.90
2018-03-11T13:05:11.016Z,4.20
2018-03-11T13:06:10.544Z,3.30
2018-03-11T13:08:05.510Z,4.40
2018-03-11T13:09:04.767Z,5.70
2018-03-11T13:10:57.144Z,3.10
2018-03-11T13:11:58.602Z,3.00
2018-03-11T13:13:52.067Z,4.80
2018-03-11T13:14:50.008Z,4.30
2018-03-11T13:16:43.383Z,3.30
2018-03-11T13:17:43.022Z,2.70
2018-03-11T13:19:37.389Z,5.00
2018-03-11T13:21:54.716Z,7.20
2018-03-11T13:22:50.795Z,3.50
2018-03-11T13:24:44.707Z,3.80
2018-03-11T13:25:44.697Z,2.70
2018-03-11T13:27:38.428Z,2.80
2018-03-11T13:28:37.124Z,3.30
2018-03-11T13:30:30.981Z,3.30
2018-03-11T13:31:30.501Z,4.90
2018-03-11T13:33:23.838Z,3.80
2018-03-11T13:34:23.838Z,4.10
2018-03-11T13:36:17.069Z,6.70
2018-03-11T13:37:17.531Z,4.20
2018-03-11T13:39:10.415Z,4.70
2018-03-11T13:40:11.413Z,2.70
2018-03-11T13:42:04.854Z,4.40
2018-03-11T13:43:02.899Z,3.20
2018-03-11T13:45:23.934Z,3.90
2018-03-11T13:46:23.837Z,2.50
2018-03-11T13:48:23.274Z,3.80
2018-03-11T13:49:21.859Z,3.00
2018-03-11T13:51:15.460Z,3.50
2018-03-11T13:52:15.360Z,5.50
2018-03-11T13:54:08.458Z,3.50
2018-03-11T13:55:08.112Z,3.50
2018-03-11T13:57:02.653Z,2.90
2018-03-11T13:58:01.455Z,3.40
2018-03-11T13:59:55.250Z,3.30
2018-03-11T14:00:55.174Z,4.20
2018-03-11T14:02:48.633Z,4.90
2018-03-11T14:03:48.600Z,2.30
2018-03-11T14:05:53.390Z,4.70
2018-03-11T14:06:55.104Z,2.90
2018-03-11T14:08:46.307Z,3.90
2018-03-11T14:09:46.650Z,2.50
2018-03-11T14:11:40.849Z,4.90
2018-03-11T14:12:41.042Z,2.40
2018-03-11T14:14:34.087Z,2.60
2018-03-11T14:15:35.930Z,3.20
2018-03-11T14:17:31.342Z,4.60
2018-03-11T14:18:28.123Z,4.60
2018-03-11T14:20:23.436Z,4.10
2018-03-11T14:21:22.828Z,3.50
2018-03-11T14:23:16.306Z,3.60
2018-03-11T14:24:16.154Z,4.00
2018-03-11T14:26:12.364Z,6.90
2018-03-11T14:27:11.725Z,8.70
2018-03-11T14:29:06.061Z,6.90
2018-03-11T14:30:05.490Z,5.30
2018-03-11T14:31:58.589Z,5.60
2018-03-11T14:32:58.993Z,5.70
2018-03-11T14:34:51.681Z,12.50
2018-03-11T14:35:51.635Z,10.40
2018-03-11T14:37:46.260Z,10.60
2018-03-11T14:38:45.039Z,11.90
2018-03-11T14:40:38.159Z,9.90
2018-03-11T14:41:37.927Z,6.60
2018-03-11T14:43:30.846Z,25.40
2018-03-11T14:44:30.782Z,38.40
2018-03-11T14:46:24.466Z,7.40
2018-03-11T14:47:24.176Z,9.10
2018-03-11T14:49:17.393Z,7.20
2018-03-11T14:50:17.049Z,8.90
2018-03-11T14:52:10.241Z,8.50
2018-03-11T14:53:10.013Z,11.20
2018-03-11T14:55:02.940Z,8.70
2018-03-11T14:56:02.936Z,7.90
2018-03-11T14:58:00.915Z,13.70
2018-03-11T14:59:03.407Z,8.90
2018-03-11T15:00:56.729Z,7.80
2018-03-11T15:01:55.547Z,12.80
2018-03-11T15:03:59.274Z,15.70
2018-03-11T15:04:58.868Z,11.00
2018-03-11T15:06:53.217Z,7.80
2018-03-11T15:07:52.829Z,6.20
2018-03-11T15:09:50.648Z,7.00
2018-03-11T15:10:46.268Z,6.40
2018-03-11T15:12:41.898Z,3.90
2018-03-11T15:13:41.186Z,4.50
2018-03-11T15:15:32.596Z,6.70
2018-03-11T15:16:32.539Z,5.40
2018-03-11T15:18:25.947Z,5.70
2018-03-11T15:19:25.827Z,5.90
2018-03-11T15:21:19.327Z,5.50
2018-03-11T15:22:18.867Z,3.40
2018-03-11T15:24:12.611Z,5.80
2018-03-11T15:25:12.557Z,4.80
2018-03-11T15:27:05.548Z,3.70
2018-03-11T15:28:05.565Z,3.90
2018-03-11T15:29:58.752Z,3.50
2018-03-11T15:30:58.456Z,3.90
2018-03-11T15:32:54.523Z,3.00
2018-03-11T15:33:52.438Z,2.60
2018-03-11T15:35:48.246Z,3.80
2018-03-11T15:36:48.054Z,3.40
2018-03-11T15:38:46.364Z,3.70
2018-03-11T15:39:43.487Z,3.00
2018-03-11T15:41:35.440Z,4.10
2018-03-11T15:42:35.437Z,3.60
2018-03-11T15:44:29.909Z,3.00
2018-03-11T15:45:32.925Z,4.40
2018-03-11T15:47:22.889Z,4.90
2018-03-11T15:48:24.947Z,4.40
2018-03-11T15:50:19.371Z,4.00
2018-03-11T15:51:15.982Z,2.60
2018-03-11T15:53:09.446Z,2.50
2018-03-11T15:54:09.105Z,2.20
2018-03-11T15:56:03.879Z,2.60
2018-03-11T15:57:03.793Z,2.30
2018-03-11T15:58:59.088Z,2.30
2018-03-11T15:59:59.589Z,2.90
2018-03-11T16:01:52.783Z,3.30
2018-03-11T16:02:50.552Z,2.40
2018-03-11T16:04:44.183Z,2.50
2018-03-11T16:05:43.690Z,4.30
2018-03-11T16:07:37.459Z,2.50
2018-03-11T16:08:37.412Z,3.20
2018-03-11T16:10:33.576Z,2.90
2018-03-11T16:11:30.863Z,2.40
2018-03-11T16:14:15.212Z,2.30
2018-03-11T16:15:14.816Z,2.30
2018-03-11T16:17:11.031Z,3.10
2018-03-11T16:18:08.554Z,5.60
2018-03-11T16:20:04.391Z,4.40
2018-03-11T16:21:01.479Z,3.60
2018-03-11T16:22:55.814Z,9.20
2018-03-11T16:23:55.802Z,5.70
2018-03-11T16:25:51.675Z,5.20
2018-03-11T16:26:49.726Z,5.00
2018-03-11T16:28:45.659Z,2.70
2018-03-11T16:29:42.781Z,2.20
2018-03-11T16:32:27.299Z,2.70
2018-03-11T16:33:30.188Z,6.20
2018-03-11T16:35:20.950Z,2.40
2018-03-11T16:36:21.139Z,3.50
2018-03-11T16:38:14.434Z,3.70
2018-03-11T16:39:14.027Z,2.90
2018-03-11T16:41:07.773Z,2.70
2018-03-11T16:42:07.755Z,2.70
2018-03-11T16:44:00.285Z,6.70
2018-03-11T16:45:00.228Z,9.50
2018-03-11T16:46:53.580Z,2.90
2018-03-11T16:47:53.205Z,3.10
2018-03-11T16:49:47.501Z,3.70
2018-03-11T16:50:46.916Z,3.00
2018-03-11T16:52:40.928Z,2.30
2018-03-11T16:53:40.578Z,5.80
2018-03-11T16:55:34.132Z,4.40
2018-03-11T16:56:33.649Z,5.10
2018-03-11T16:58:27.376Z,7.30
2018-03-11T16:59:27.429Z,6.40
2018-03-11T17:01:22.016Z,5.30
2018-03-11T17:02:20.375Z,4.70
2018-03-11T17:04:14.201Z,4.30
2018-03-11T17:05:13.770Z,4.70
2018-03-11T17:07:08.579Z,8.90
2018-03-11T17:08:07.076Z,11.20
2018-03-11T17:10:00.041Z,11.10
2018-03-11T17:10:59.997Z,7.80
2018-03-11T17:12:54.446Z,8.50
2018-03-11T17:13:54.685Z,10.80
2018-03-11T17:15:48.163Z,9.20
2018-03-11T17:16:47.743Z,9.40
2018-03-11T17:18:40.748Z,10.10
2018-03-11T17:19:40.789Z,9.80
2018-03-11T17:21:34.422Z,9.80
2018-03-11T17:22:33.983Z,9.30
2018-03-11T17:24:27.597Z,6.30
2018-03-11T17:25:27.386Z,9.00
2018-03-11T17:27:20.801Z,11.20
2018-03-11T17:28:20.730Z,15.40
2018-03-11T17:30:15.189Z,10.00
2018-03-11T17:31:15.104Z,9.70
2018-03-11T17:33:08.592Z,6.50
2018-03-11T17:34:08.470Z,8.10
2018-03-11T17:36:03.400Z,6.10
2018-03-11T17:37:01.846Z,6.60
2018-03-11T17:38:55.630Z,7.10
2018-03-11T17:39:55.588Z,7.70
2018-03-11T17:41:49.025Z,10.90
2018-03-11T17:42:48.598Z,6.50
2018-03-11T17:44:42.451Z,6.40
2018-03-11T17:45:42.421Z,5.10
2018-03-11T17:47:35.888Z,5.40
2018-03-11T17:48:35.839Z,5.30
2018-03-11T17:50:29.826Z,5.90
2018-03-11T17:51:29.374Z,4.90
2018-03-11T17:53:23.122Z,5.30
2018-03-11T17:54:22.729Z,6.30
2018-03-11T17:56:16.548Z,5.40
2018-03-11T17:57:16.090Z,6.10
2018-03-11T17:59:13.081Z,8.50
2018-03-11T18:00:12.588Z,8.20
2018-03-11T18:02:04.791Z,8.30
2018-03-11T18:03:05.123Z,8.40
2018-03-11T18:05:02.733Z,6.80
2018-03-11T18:05:57.752Z,7.10
2018-03-11T18:09:25.316Z,5.80
2018-03-11T18:10:26.220Z,5.80
2018-03-11T18:12:18.967Z,6.60
2018-03-11T18:13:18.198Z,5.60
2018-03-11T18:15:13.883Z,8.00
2018-03-11T18:16:12.873Z,5.70
2018-03-11T18:18:07.367Z,4.60
2018-03-11T18:19:07.461Z,8.30
2018-03-11T18:21:01.679Z,8.50
2018-03-11T18:22:00.668Z,6.00
2018-03-11T18:23:54.625Z,5.90
2018-03-11T18:24:54.099Z,6.30
2018-03-11T18:26:47.498Z,9.50
2018-03-11T18:27:47.474Z,6.40
2018-03-11T18:29:40.785Z,12.00
2018-03-11T18:30:42.378Z,9.10
2018-03-11T18:32:36.700Z,9.60
2018-03-11T18:33:33.745Z,9.40
2018-03-11T18:35:27.799Z,9.20
2018-03-11T18:36:26.419Z,8.50
2018-03-11T18:38:20.614Z,84.90
2018-03-11T18:39:19.878Z,82.30
2018-03-11T18:41:13.648Z,22.20
2018-03-11T18:42:13.323Z,28.60
2018-03-11T18:44:07.507Z,38.30
2018-03-11T18:45:06.536Z,32.10
2018-03-11T18:47:00.626Z,16.30
2018-03-11T18:47:59.951Z,22.20
2018-03-11T18:49:53.736Z,17.90
2018-03-11T18:50:53.226Z,16.20
2018-03-11T18:52:47.142Z,14.40
2018-03-11T18:53:46.687Z,13.00
2018-03-11T18:55:41.008Z,18.30
2018-03-11T18:56:40.924Z,12.30
2018-03-11T18:58:34.920Z,11.60